createdAt,value
2022-11-27T00:03:46.269Z,3.73
2022-11-27T00:05:48.199Z,3.73
2022-11-27T00:09:50.626Z,3.73
2022-11-27T00:11:52.698Z,3.73
2022-11-27T00:13:54.569Z,3.73
2022-11-27T00:15:55.867Z,3.73
2022-11-27T00:19:58.754Z,3.73
2022-11-27T00:22:00.414Z,3.72
2022-11-27T00:24:01.636Z,3.72
2022-11-27T00:26:02.692Z,3.73
2022-11-27T00:28:03.846Z,3.73
2022-11-27T00:30:05.138Z,3.73
2022-11-27T00:32:07.193Z,3.72
2022-11-27T00:36:10.062Z,3.72
2022-11-27T00:38:11.547Z,3.72
2022-11-27T00:40:13.050Z,3.72
2022-11-27T00:42:14.269Z,3.72
2022-11-27T00:46:16.707Z,3.72
2022-11-27T00:48:18.584Z,3.72
2022-11-27T00:50:20.068Z,3.72
2022-11-27T00:52:21.444Z,3.72
2022-11-27T00:54:23.308Z,3.72
2022-11-27T00:56:24.786Z,3.72
2022-11-27T00:58:26.508Z,3.72
2022-11-27T01:02:29.776Z,3.72
2022-11-27T01:04:31.691Z,3.72
2022-11-27T01:08:35.426Z,3.72
2022-11-27T01:10:36.823Z,3.72
2022-11-27T01:12:38.741Z,3.72
2022-11-27T01:14:40.826Z,3.72
2022-11-27T01:18:43.303Z,3.72
2022-11-27T01:20:44.944Z,3.72
2022-11-27T01:22:46.339Z,3.72
2022-11-27T01:24:47.709Z,3.71
2022-11-27T01:28:50.632Z,3.71
2022-11-27T01:30:51.929Z,3.71
2022-11-27T01:32:53.205Z,3.72
2022-11-27T01:34:54.607Z,3.71
2022-11-27T01:36:55.597Z,3.71
2022-11-27T01:38:56.980Z,3.71
2022-11-27T01:40:58.974Z,3.71
2022-11-27T01:45:02.179Z,3.71
2022-11-27T01:47:04.047Z,3.71
2022-11-27T01:49:05.450Z,3.71
2022-11-27T01:51:07.377Z,3.71
2022-11-27T01:53:09.172Z,3.71
2022-11-27T01:55:10.464Z,3.71
2022-11-27T01:57:11.846Z,3.71
2022-11-27T02:01:14.804Z,3.71
2022-11-27T02:03:16.590Z,3.71
2022-11-27T02:05:18.044Z,3.71
2022-11-27T02:07:19.389Z,3.71
2022-11-27T02:09:21.200Z,3.71
2022-11-27T02:11:22.979Z,3.71
2022-11-27T02:13:24.516Z,3.7
2022-11-27T02:17:27.859Z,3.7
2022-11-27T02:19:29.248Z,3.7
2022-11-27T02:21:30.438Z,3.7
2022-11-27T02:23:31.935Z,3.7
2022-11-27T02:27:34.566Z,3.7
2022-11-27T02:29:36.105Z,3.7
2022-11-27T02:31:37.780Z,3.7
2022-11-27T02:33:39.737Z,3.7
2022-11-27T02:35:41.447Z,3.7
2022-11-27T02:37:43.138Z,3.7
2022-11-27T02:39:44.659Z,3.7
2022-11-27T02:43:48.407Z,3.7
2022-11-27T02:45:50.427Z,3.7
2022-11-27T02:47:51.484Z,3.7
2022-11-27T02:49:53.472Z,3.7
2022-11-27T02:51:54.563Z,3.7
2022-11-27T02:53:56.533Z,3.7
2022-11-27T02:55:57.810Z,3.7
2022-11-27T03:00:00.343Z,3.7
2022-11-27T03:02:02.202Z,3.7
2022-11-27T03:04:03.781Z,3.7
2022-11-27T03:06:05.785Z,3.7
2022-11-27T03:10:08.965Z,3.7
2022-11-27T03:12:10.112Z,3.7
2022-11-27T03:14:11.779Z,3.7
2022-11-27T03:16:13.333Z,3.7
2022-11-27T03:18:14.983Z,3.7
2022-11-27T03:20:16.443Z,3.7
2022-11-27T03:22:18.427Z,3.7
2022-11-27T03:26:21.066Z,3.7
2022-11-27T03:27:05.003Z,3.69
2022-11-27T03:29:06.791Z,3.7
2022-11-27T03:31:08.528Z,3.7
2022-11-27T03:33:10.254Z,3.69
2022-11-27T03:37:13.677Z,3.69
2022-11-27T03:39:14.855Z,3.7
2022-11-27T03:41:16.638Z,3.69
2022-11-27T03:43:18.353Z,3.69
2022-11-27T03:47:21.479Z,3.69
2022-11-27T03:49:23.343Z,3.69
2022-11-27T03:53:26.957Z,3.69
2022-11-27T03:55:28.700Z,3.69
2022-11-27T03:57:30.626Z,3.69
2022-11-27T03:59:39.711Z,3.69
2022-11-27T04:01:33.810Z,3.69
2022-11-27T04:03:35.368Z,3.69
2022-11-27T04:05:36.529Z,3.69
2022-11-27T04:07:47.076Z,3.69
2022-11-27T04:09:39.710Z,3.69
2022-11-27T04:11:41.269Z,3.69
2022-11-27T04:13:42.481Z,3.69
2022-11-27T04:15:43.656Z,3.69
2022-11-27T04:19:45.995Z,3.68
2022-11-27T04:21:47.505Z,3.68
2022-11-27T04:23:49.053Z,3.68
2022-11-27T04:25:50.223Z,3.69
2022-11-27T04:29:53.495Z,3.69
2022-11-27T04:31:54.668Z,3.68
2022-11-27T04:33:56.559Z,3.68
2022-11-27T04:35:58.635Z,3.68
2022-11-27T04:37:59.967Z,3.68
2022-11-27T04:40:01.390Z,3.68
2022-11-27T04:42:02.800Z,3.68
2022-11-27T04:46:05.817Z,3.68
2022-11-27T04:48:06.952Z,3.68
2022-11-27T04:52:10.519Z,3.68
2022-11-27T04:54:12.586Z,3.68
2022-11-27T04:56:13.871Z,3.68
2022-11-27T04:58:15.438Z,3.68
2022-11-27T05:02:18.406Z,3.68
2022-11-27T05:04:19.584Z,3.68
2022-11-27T05:06:21.227Z,3.68
2022-11-27T05:08:23.232Z,3.68
2022-11-27T05:12:26.252Z,3.68
2022-11-27T05:14:27.464Z,3.68
2022-11-27T05:16:29.662Z,3.68
2022-11-27T05:18:30.556Z,3.68
2022-11-27T05:20:32.270Z,3.68
2022-11-27T05:22:33.960Z,3.68
2022-11-27T05:24:35.834Z,3.68
2022-11-27T05:28:39.091Z,3.68
2022-11-27T05:30:40.430Z,3.68
2022-11-27T05:34:43.129Z,3.68
2022-11-27T05:36:44.363Z,3.68
2022-11-27T05:38:45.700Z,3.67
2022-11-27T05:40:47.516Z,3.68
2022-11-27T05:44:53.985Z,3.68
2022-11-27T05:46:51.758Z,3.68
2022-11-27T05:48:53.518Z,3.68
2022-11-27T05:50:55.108Z,3.68
2022-11-27T05:52:56.465Z,3.67
2022-11-27T05:54:57.886Z,3.68
2022-11-27T05:56:59.938Z,3.68
2022-11-27T06:01:03.225Z,3.67
2022-11-27T06:03:04.884Z,3.67
2022-11-27T06:05:06.572Z,3.68
2022-11-27T06:07:08.298Z,3.68
2022-11-27T06:11:11.094Z,3.68
2022-11-27T06:13:12.687Z,3.67
2022-11-27T06:15:14.062Z,3.67
2022-11-27T06:17:15.302Z,3.67
2022-11-27T06:19:17.276Z,3.68
2022-11-27T06:21:18.807Z,3.67
2022-11-27T06:23:20.626Z,3.67
2022-11-27T06:25:22.655Z,3.67
2022-11-27T06:27:23.754Z,3.67
2022-11-27T06:29:25.174Z,3.67
2022-11-27T06:31:26.733Z,3.67
2022-11-27T06:33:27.971Z,3.67
2022-11-27T06:35:29.709Z,3.67
2022-11-27T06:37:31.292Z,3.67
2022-11-27T06:39:33.403Z,3.67
2022-11-27T06:43:36.870Z,3.67
2022-11-27T06:45:39.042Z,3.67
2022-11-27T06:47:40.290Z,3.67
2022-11-27T06:49:42.286Z,3.67
2022-11-27T06:53:44.753Z,3.67
2022-11-27T06:55:46.243Z,3.67
2022-11-27T06:57:47.429Z,3.67
2022-11-27T06:59:48.833Z,3.67
2022-11-27T07:01:50.578Z,3.67
2022-11-27T07:03:52.528Z,3.67
2022-11-27T07:05:53.975Z,3.67
2022-11-27T07:09:56.987Z,3.67
2022-11-27T07:11:58.955Z,3.67
2022-11-27T07:14:00.646Z,3.67
2022-11-27T07:16:02.083Z,3.67
2022-11-27T07:18:03.734Z,3.66
2022-11-27T07:20:04.834Z,3.67
2022-11-27T07:22:06.259Z,3.66
2022-11-27T07:24:08.339Z,3.66
2022-11-27T07:26:09.776Z,3.67
2022-11-27T07:28:13.600Z,3.66
2022-11-27T07:30:12.247Z,3.66
2022-11-27T07:32:13.479Z,3.66
2022-11-27T07:36:16.018Z,3.66
2022-11-27T07:38:17.353Z,3.66
2022-11-27T07:42:38.223Z,3.66
2022-11-27T07:44:21.175Z,3.66
2022-11-27T07:46:22.840Z,3.67
2022-11-27T07:48:24.371Z,3.66
2022-11-27T07:52:26.835Z,3.66
2022-11-27T07:54:28.556Z,3.66
2022-11-27T07:56:29.713Z,3.66
2022-11-27T07:58:31.573Z,3.66
2022-11-27T08:00:32.723Z,3.66
2022-11-27T08:02:34.151Z,3.67
2022-11-27T08:04:35.529Z,3.68
2022-11-27T08:08:38.539Z,3.72
2022-11-27T08:10:39.977Z,3.74
2022-11-27T08:12:41.461Z,3.74
2022-11-27T08:14:43.371Z,3.76
2022-11-27T08:18:47.092Z,3.72
2022-11-27T08:20:48.279Z,3.72
2022-11-27T08:22:49.904Z,3.71
2022-11-27T08:24:51.679Z,3.71
2022-11-27T08:26:53.680Z,3.71
2022-11-27T08:28:55.418Z,3.71
2022-11-27T08:30:56.979Z,3.72
2022-11-27T08:35:00.705Z,3.73
2022-11-27T08:37:01.994Z,3.73
2022-11-27T08:41:04.368Z,3.73
2022-11-27T08:43:06.142Z,3.75
2022-11-27T08:45:07.688Z,3.77
2022-11-27T08:47:09.138Z,3.77
2022-11-27T08:51:12.162Z,3.78
2022-11-27T08:53:13.501Z,3.79
2022-11-27T08:55:15.898Z,3.79
2022-11-27T08:57:17.685Z,3.76
2022-11-27T09:01:21.107Z,3.76
2022-11-27T09:03:23.018Z,3.76
2022-11-27T09:05:24.359Z,3.75
2022-11-27T09:07:25.983Z,3.74
2022-11-27T09:09:27.213Z,3.76
2022-11-27T09:11:29.067Z,3.76
2022-11-27T09:13:30.374Z,3.77
2022-11-27T09:15:32.382Z,3.78
2022-11-27T09:19:35.220Z,3.79
2022-11-27T09:23:38.566Z,3.81
2022-11-27T09:25:40.164Z,3.82
2022-11-27T09:27:41.683Z,3.82
2022-11-27T09:29:42.977Z,3.82
2022-11-27T09:33:45.288Z,3.83
2022-11-27T09:35:46.333Z,3.83
2022-11-27T09:37:47.720Z,3.82
2022-11-27T09:39:49.095Z,3.82
2022-11-27T09:41:50.703Z,3.81
2022-11-27T09:43:51.889Z,3.82
2022-11-27T09:45:53.227Z,3.84
2022-11-27T09:49:55.857Z,3.84
2022-11-27T09:51:57.590Z,3.84
2022-11-27T09:53:59.172Z,3.84
2022-11-27T09:56:00.797Z,3.85
2022-11-27T10:00:03.551Z,3.85
2022-11-27T10:02:04.980Z,3.86
2022-11-27T10:04:06.281Z,3.86
2022-11-27T10:06:08.658Z,3.86
2022-11-27T10:08:10.176Z,3.86
2022-11-27T10:10:12.680Z,3.87
2022-11-27T10:12:13.633Z,3.87
2022-11-27T10:12:57.450Z,3.87
2022-11-27T10:14:59.373Z,3.88
2022-11-27T10:17:00.346Z,3.87
2022-11-27T10:19:01.370Z,3.88
2022-11-27T10:21:03.031Z,3.88
2022-11-27T10:23:04.035Z,3.88
2022-11-27T10:27:06.084Z,3.89
2022-11-27T10:29:07.709Z,3.89
2022-11-27T10:31:08.822Z,3.9
2022-11-27T10:33:10.552Z,3.9
2022-11-27T10:37:13.802Z,3.9
2022-11-27T10:39:15.124Z,3.91
2022-11-27T10:43:19.340Z,3.91
2022-11-27T10:45:20.620Z,3.92
2022-11-27T10:47:21.631Z,3.92
2022-11-27T10:49:23.472Z,3.92
2022-11-27T10:53:26.697Z,3.93
2022-11-27T10:55:27.820Z,3.93
2022-11-27T10:57:29.141Z,3.93
2022-11-27T10:59:33.122Z,3.94
2022-11-27T11:01:31.822Z,3.94
2022-11-27T11:03:33.604Z,3.94
2022-11-27T11:05:50.861Z,3.94
2022-11-27T11:09:38.266Z,3.95
2022-11-27T11:11:39.241Z,3.95
2022-11-27T11:13:40.715Z,3.96
2022-11-27T11:15:42.232Z,3.96
2022-11-27T11:19:44.146Z,3.94
2022-11-27T11:21:45.336Z,3.94
2022-11-27T11:23:46.357Z,3.94
2022-11-27T11:25:48.324Z,3.95
2022-11-27T11:27:49.855Z,3.95
2022-11-27T11:29:51.503Z,3.96
2022-11-27T11:31:52.815Z,3.96
2022-11-27T11:35:55.800Z,3.96
2022-11-27T11:37:57.329Z,3.98
2022-11-27T11:42:01.056Z,3.98
2022-11-27T11:44:02.711Z,3.99
2022-11-27T11:46:04.156Z,3.99
2022-11-27T11:48:05.577Z,4
2022-11-27T11:52:07.892Z,4
2022-11-27T11:54:09.760Z,4
2022-11-27T11:56:10.812Z,4.01
2022-11-27T11:58:12.299Z,4.01
2022-11-27T12:02:15.062Z,4.02
2022-11-27T12:04:16.165Z,4.02
2022-11-27T12:08:19.528Z,4.03
2022-11-27T12:10:20.518Z,4.03
2022-11-27T12:12:21.578Z,4.03
2022-11-27T12:14:23.036Z,4.04
2022-11-27T12:18:25.462Z,4.04
2022-11-27T12:20:26.353Z,4.04
2022-11-27T12:22:27.898Z,4.05
2022-11-27T12:24:29.200Z,4.05
2022-11-27T12:26:30.135Z,4.06
2022-11-27T12:28:32.042Z,4.06
2022-11-27T12:30:33.280Z,4.06
2022-11-27T12:34:36.405Z,4.07
2022-11-27T12:36:37.727Z,4.07
2022-11-27T12:38:39.403Z,4.07
2022-11-27T12:40:40.674Z,4.08
2022-11-27T12:42:41.947Z,4.08
2022-11-27T12:44:43.151Z,4.08
2022-11-27T12:46:44.406Z,4.08
2022-11-27T12:50:47.113Z,4.1
2022-11-27T12:52:48.336Z,4.1
2022-11-27T12:54:49.463Z,4.1
2022-11-27T13:00:53.698Z,4.1
2022-11-27T13:02:54.670Z,4.11
2022-11-27T13:15:04.417Z,4.12
2022-11-27T13:17:05.833Z,4.13
2022-11-27T13:19:07.359Z,4.13
2022-11-27T13:23:09.951Z,4.14
2022-11-27T13:25:11.603Z,4.14
2022-11-27T13:27:12.693Z,4.14
2022-11-27T13:29:14.494Z,4.14
2022-11-27T13:33:17.319Z,4.15
2022-11-27T13:35:18.199Z,4.16
2022-11-27T13:39:20.968Z,4.16
2022-11-27T13:41:22.858Z,4.14
2022-11-27T13:43:24.261Z,4.14
2022-11-27T13:45:25.627Z,4.14
2022-11-27T13:49:28.641Z,4.14
2022-11-27T13:51:29.974Z,4.13
2022-11-27T13:53:31.493Z,4.14
2022-11-27T13:55:32.642Z,4.14
2022-11-27T13:57:34.623Z,4.16
2022-11-27T13:59:39.406Z,4.16
2022-11-27T14:01:39.091Z,4.17
2022-11-27T14:05:41.726Z,4.17
2022-11-27T14:07:43.452Z,4.16
2022-11-27T14:09:44.820Z,4.15
2022-11-27T14:11:46.000Z,4.15
2022-11-27T14:15:49.140Z,4.15
2022-11-27T14:17:50.711Z,4.14
2022-11-27T14:21:52.902Z,4.14
2022-11-27T14:23:54.497Z,4.14
2022-11-27T14:25:56.420Z,4.14
2022-11-27T14:27:58.131Z,4.14
2022-11-27T14:32:00.852Z,4.13
2022-11-27T14:34:15.421Z,4.13
2022-11-27T14:36:03.580Z,4.13
2022-11-27T14:38:05.010Z,4.13
2022-11-27T14:40:06.407Z,4.13
2022-11-27T14:42:08.145Z,4.13
2022-11-27T14:44:10.002Z,4.13
2022-11-27T14:48:12.222Z,4.13
2022-11-27T14:50:13.982Z,4.13
2022-11-27T14:52:15.560Z,4.13
2022-11-27T14:54:17.154Z,4.13
2022-11-27T14:58:20.825Z,4.12
2022-11-27T15:00:22.726Z,4.12
2022-11-27T15:02:27.656Z,4.12
2022-11-27T15:04:24.864Z,4.12
2022-11-27T15:06:26.238Z,4.12
2022-11-27T15:08:27.482Z,4.12
2022-11-27T15:10:29.258Z,4.12
2022-11-27T15:14:32.507Z,4.12
2022-11-27T15:16:33.754Z,4.12
2022-11-27T15:20:36.936Z,4.12
2022-11-27T15:22:38.297Z,4.12
2022-11-27T15:24:40.018Z,4.12
2022-11-27T15:26:41.342Z,4.12
2022-11-27T15:30:44.490Z,4.12
2022-11-27T15:32:45.669Z,4.12
2022-11-27T15:34:46.783Z,4.12
2022-11-27T15:36:47.820Z,4.12
2022-11-27T15:40:50.095Z,4.12
2022-11-27T15:42:51.744Z,4.11
2022-11-27T15:44:53.261Z,4.12
2022-11-27T15:46:54.631Z,4.11
2022-11-27T15:48:55.908Z,4.11
2022-11-27T15:50:57.241Z,4.11
2022-11-27T15:52:59.101Z,4.11
2022-11-27T15:57:01.798Z,4.11
2022-11-27T15:59:03.350Z,4.11
2022-11-27T16:01:05.300Z,4.11
2022-11-27T16:03:06.878Z,4.11
2022-11-27T16:05:08.745Z,4.11
2022-11-27T16:07:09.924Z,4.11
2022-11-27T16:09:11.187Z,4.1
2022-11-27T16:13:13.716Z,4.11
2022-11-27T16:15:15.185Z,4.11
2022-11-27T16:17:16.959Z,4.1
2022-11-27T16:19:18.548Z,4.1
2022-11-27T16:21:19.767Z,4.11
2022-11-27T16:23:21.391Z,4.1
2022-11-27T16:25:22.430Z,4.1
2022-11-27T16:29:24.990Z,4.11
2022-11-27T16:31:26.897Z,4.1
2022-11-27T16:33:28.463Z,4.1
2022-11-27T16:35:30.009Z,4.1
2022-11-27T16:39:32.584Z,4.1
2022-11-27T16:41:34.512Z,4.1
2022-11-27T16:43:36.481Z,4.1
2022-11-27T16:45:37.565Z,4.1
2022-11-27T16:47:38.940Z,4.1
2022-11-27T16:49:40.156Z,4.1
2022-11-27T16:51:41.817Z,4.1
2022-11-27T16:55:44.652Z,4.1
2022-11-27T16:57:45.651Z,4.1
2022-11-27T17:00:30.948Z,4.1
2022-11-27T17:02:32.942Z,4.1
2022-11-27T17:06:36.262Z,4.1
2022-11-27T17:08:38.155Z,4.1
2022-11-27T17:10:39.671Z,4.1
2022-11-27T17:12:40.837Z,4.1
2022-11-27T17:16:43.825Z,4.1
2022-11-27T17:18:44.926Z,4.09
2022-11-27T17:20:45.981Z,4.1
2022-11-27T17:22:47.111Z,4.09
2022-11-27T17:24:48.972Z,4.09
2022-11-27T17:26:50.852Z,4.09
2022-11-27T17:28:52.775Z,4.09
2022-11-27T17:32:54.950Z,4.09
2022-11-27T17:34:56.089Z,4.09
2022-11-27T17:38:59.532Z,4.09
2022-11-27T17:41:00.668Z,4.09
2022-11-27T17:43:02.273Z,4.09
2022-11-27T17:45:03.715Z,4.09
2022-11-27T17:49:07.378Z,4.09
2022-11-27T17:51:09.103Z,4.09
2022-11-27T17:53:10.892Z,4.09
2022-11-27T17:55:12.020Z,4.09
2022-11-27T17:59:14.250Z,4.09
2022-11-27T18:01:15.881Z,4.09
2022-11-27T18:03:17.419Z,4.09
2022-11-27T18:05:18.668Z,4.09
2022-11-27T18:07:20.623Z,4.08
2022-11-27T18:09:22.435Z,4.08
2022-11-27T18:11:24.211Z,4.08
2022-11-27T18:15:27.474Z,4.08
2022-11-27T18:17:28.443Z,4.08
2022-11-27T18:21:31.639Z,4.08
2022-11-27T18:23:33.076Z,4.08
2022-11-27T18:25:34.271Z,4.08
2022-11-27T18:27:35.363Z,4.08
2022-11-27T18:31:41.116Z,4.08
2022-11-27T18:33:40.195Z,4.08
2022-11-27T18:35:41.464Z,4.08
2022-11-27T18:37:43.252Z,4.08
2022-11-27T18:41:46.357Z,4.08
2022-11-27T18:43:47.715Z,4.08
2022-11-27T18:47:50.738Z,4.08
2022-11-27T18:49:52.689Z,4.08
2022-11-27T18:51:53.979Z,4.08
2022-11-27T18:53:55.951Z,4.08
2022-11-27T18:57:59.230Z,4.08
2022-11-27T19:00:00.625Z,4.08
2022-11-27T19:02:01.989Z,4.08
2022-11-27T19:04:03.051Z,4.08
2022-11-27T19:06:04.529Z,4.07
2022-11-27T19:08:06.276Z,4.08
2022-11-27T19:10:07.967Z,4.08
2022-11-27T19:14:10.979Z,4.08
2022-11-27T19:16:12.666Z,4.08
2022-11-27T19:18:14.253Z,4.08
2022-11-27T19:20:15.456Z,4.07
2022-11-27T19:22:16.534Z,4.07
2022-11-27T19:24:17.810Z,4.07
2022-11-27T19:26:18.894Z,4.07
2022-11-27T19:30:22.159Z,4.07
2022-11-27T19:32:24.083Z,4.07
2022-11-27T19:34:25.206Z,4.07
2022-11-27T19:36:26.767Z,4.07
2022-11-27T19:40:29.844Z,4.07
2022-11-27T19:42:31.065Z,4.07
2022-11-27T19:44:32.936Z,4.07
2022-11-27T19:46:34.017Z,4.07
2022-11-27T19:48:35.124Z,4.07
2022-11-27T19:50:36.125Z,4.07
2022-11-27T19:52:37.253Z,4.07
2022-11-27T19:54:39.516Z,4.07
2022-11-27T19:56:40.917Z,4.07
2022-11-27T19:58:42.302Z,4.07
2022-11-27T20:00:44.137Z,4.06
2022-11-27T20:02:45.551Z,4.06
2022-11-27T20:04:46.568Z,4.06
2022-11-27T20:06:47.988Z,4.06
2022-11-27T20:08:49.290Z,4.06
2022-11-27T20:12:51.764Z,4.06
2022-11-27T20:14:53.684Z,4.06
2022-11-27T20:16:55.097Z,4.06
2022-11-27T20:18:57.023Z,4.06
2022-11-27T20:23:00.496Z,4.06
2022-11-27T20:25:18.749Z,4.06
2022-11-27T20:29:05.505Z,4.06
2022-11-27T20:31:07.239Z,4.06
2022-11-27T20:33:08.916Z,4.06
2022-11-27T20:35:10.718Z,4.06
2022-11-27T20:39:17.812Z,4.06
2022-11-27T20:41:14.235Z,4.06
2022-11-27T20:43:15.801Z,4.06
2022-11-27T20:45:20.287Z,4.06
2022-11-27T20:47:19.091Z,4.06
2022-11-27T20:49:20.787Z,4.06
2022-11-27T20:51:22.179Z,4.06
2022-11-27T20:55:25.183Z,4.06
2022-11-27T20:57:26.598Z,4.06
2022-11-27T20:59:28.060Z,4.05
2022-11-27T21:01:29.914Z,4.06
2022-11-27T21:05:33.008Z,4.06
2022-11-27T21:07:34.946Z,4.05
2022-11-27T21:11:37.567Z,4.05
2022-11-27T21:13:39.217Z,4.06
2022-11-27T21:15:40.627Z,4.05
2022-11-27T21:17:42.625Z,4.06
2022-11-27T21:21:45.071Z,4.05
2022-11-27T21:23:46.275Z,4.05
2022-11-27T21:25:47.827Z,4.05
2022-11-27T21:27:49.799Z,4.05
2022-11-27T21:29:50.878Z,4.05
2022-11-27T21:31:52.545Z,4.05
2022-11-27T21:33:53.757Z,4.05
2022-11-27T21:37:56.341Z,4.05
2022-11-27T21:39:58.064Z,4.05
2022-11-27T21:41:59.803Z,4.05
2022-11-27T21:44:01.663Z,4.05
2022-11-27T21:48:04.559Z,4.05
2022-11-27T21:50:05.618Z,4.05
2022-11-27T21:54:09.030Z,4.05
2022-11-27T21:56:10.942Z,4.05
2022-11-27T21:58:12.718Z,4.05
2022-11-27T22:00:14.683Z,4.05
2022-11-27T22:04:18.102Z,4.05
2022-11-27T22:06:19.434Z,4.05
2022-11-27T22:08:20.462Z,4.04
2022-11-27T22:10:21.674Z,4.05
2022-11-27T22:12:22.812Z,4.04
2022-11-27T22:14:24.231Z,4.04
2022-11-27T22:16:26.110Z,4.04
2022-11-27T22:20:28.852Z,4.04
2022-11-27T22:22:30.199Z,4.04
2022-11-27T22:24:32.098Z,4.04
2022-11-27T22:26:33.543Z,4.04
2022-11-27T22:30:36.865Z,4.04
2022-11-27T22:32:38.157Z,4.04
2022-11-27T22:36:41.510Z,4.04
2022-11-27T22:38:43.354Z,4.04
2022-11-27T22:40:45.296Z,4.04
2022-11-27T22:42:47.113Z,4.04
2022-11-27T22:46:50.913Z,4.04
2022-11-27T22:48:52.007Z,4.04
2022-11-27T22:50:53.149Z,4.04
2022-11-27T22:52:58.111Z,4.04
2022-11-27T22:54:56.543Z,4.04
2022-11-27T22:56:58.508Z,4.04
2022-11-27T22:59:24.464Z,4.04
2022-11-27T23:03:03.445Z,4.04
2022-11-27T23:05:05.301Z,4.04
2022-11-27T23:07:07.076Z,4.04
2022-11-27T23:09:08.165Z,4.04
2022-11-27T23:13:10.340Z,4.03
2022-11-27T23:15:11.805Z,4.04
2022-11-27T23:17:13.460Z,4.03
2022-11-27T23:19:15.196Z,4.03
2022-11-27T23:21:16.682Z,4.03
2022-11-27T23:23:17.690Z,4.03
2022-11-27T23:25:18.851Z,4.03
2022-11-27T23:29:21.572Z,4.03
2022-11-27T23:31:29.748Z,4.03
2022-11-27T23:33:24.915Z,4.03
2022-11-27T23:35:26.581Z,4.03
2022-11-27T23:37:27.587Z,4.03
2022-11-27T23:39:28.597Z,4.03
2022-11-27T23:41:30.113Z,4.03
2022-11-27T23:44:15.665Z,4.03
2022-11-27T23:46:16.870Z,4.03
2022-11-27T23:50:19.548Z,4.03
2022-11-27T23:52:21.375Z,4.03
2022-11-27T23:54:23.058Z,4.03
2022-11-27T23:56:24.274Z,4.03
2022-11-27T23:58:25.856Z,4.03
